Terminal Aerodrome Forecast
Issued by NWS Wilmington, OH

Current Version | Previous Version | Graphics & Text | Print | Product List | Glossary On
Versions: 1 2 3 4 5 6 7 8 9 10 11 12 13 14 15 16 17 18 19 20
044
FTUS41 KILN 161736
TAFILN
TAF
KILN 161736Z 1618/1718 31010KT P6SM OVC018
     FM170100 00000KT P6SM BKN018
     FM171400 14008KT P6SM SCT015 BKN200=

USA.gov is the U.S. government's official web portal to all federal, state and local government web resources and services.